createdAt,value
2022-07-27T00:00:45.204Z,24.40
2022-07-27T00:01:50.830Z,24.30
2022-07-27T00:02:53.665Z,24.40
2022-07-27T00:03:55.421Z,24.40
2022-07-27T00:04:57.166Z,24.50
2022-07-27T00:05:58.839Z,24.40
2022-07-27T00:07:00.517Z,24.40
2022-07-27T00:08:02.194Z,24.50
2022-07-27T00:09:04.032Z,24.40
2022-07-27T00:10:06.086Z,24.50
2022-07-27T00:11:09.854Z,24.50
2022-07-27T00:12:11.581Z,24.50
2022-07-27T00:13:13.305Z,24.50
2022-07-27T00:14:15.171Z,24.50
2022-07-27T00:15:17.996Z,24.50
2022-07-27T00:16:19.755Z,24.50
2022-07-27T00:17:23.937Z,24.50
2022-07-27T00:18:25.729Z,24.50
2022-07-27T00:19:27.410Z,24.50
2022-07-27T00:20:30.251Z,24.50
2022-07-27T00:21:32.177Z,24.40
2022-07-27T00:22:33.850Z,24.50
2022-07-27T00:23:35.605Z,24.50
2022-07-27T00:24:37.277Z,24.40
2022-07-27T00:25:39.089Z,24.40
2022-07-27T00:26:40.947Z,24.40
2022-07-27T00:27:43.063Z,24.30
2022-07-27T00:28:44.736Z,24.30
2022-07-27T00:29:46.400Z,24.30
2022-07-27T00:30:48.140Z,24.20
2022-07-27T00:31:49.975Z,24.20
2022-07-27T00:32:52.018Z,24.20
2022-07-27T00:33:53.851Z,24.20
2022-07-27T00:34:55.685Z,24.20
2022-07-27T00:35:57.420Z,24.20
2022-07-27T00:36:59.178Z,24.20
2022-07-27T00:38:00.888Z,24.20
2022-07-27T00:39:02.621Z,24.20
2022-07-27T00:40:04.941Z,24.20
2022-07-27T00:41:06.735Z,24.20
2022-07-27T00:42:08.413Z,24.20
2022-07-27T00:43:10.387Z,24.10
2022-07-27T00:44:12.440Z,24.10
2022-07-27T00:45:14.195Z,24.10
2022-07-27T00:46:15.949Z,24.10
2022-07-27T00:47:17.740Z,24.00
2022-07-27T00:48:19.743Z,24.00
2022-07-27T00:49:23.389Z,24.00
2022-07-27T00:50:25.142Z,24.00
2022-07-27T00:51:26.905Z,24.00
2022-07-27T00:52:30.008Z,24.00
2022-07-27T00:53:31.745Z,24.00
2022-07-27T00:54:33.658Z,24.00
2022-07-27T00:55:36.457Z,24.00
2022-07-27T00:56:38.316Z,24.00
2022-07-27T00:57:58.207Z,24.00
2022-07-27T00:59:01.452Z,24.00
2022-07-27T01:00:05.061Z,24.00
2022-07-27T01:01:07.512Z,24.00
2022-07-27T01:02:11.852Z,24.00
2022-07-27T01:03:16.203Z,24.00
2022-07-27T01:04:18.208Z,24.00
2022-07-27T01:05:23.424Z,24.00
2022-07-27T01:06:37.994Z,24.00
2022-07-27T01:07:40.454Z,23.90
2022-07-27T01:08:42.597Z,23.90
2022-07-27T01:09:58.379Z,23.90
2022-07-27T01:11:02.270Z,23.90
2022-07-27T01:12:04.240Z,23.80
2022-07-27T01:13:06.075Z,23.80
2022-07-27T01:14:16.180Z,23.80
2022-07-27T01:15:17.988Z,23.80
2022-07-27T01:16:21.362Z,23.70
2022-07-27T01:17:23.185Z,23.70
2022-07-27T01:18:36.740Z,23.70
2022-07-27T01:19:38.564Z,23.70
2022-07-27T01:20:42.135Z,23.70
2022-07-27T01:21:44.705Z,23.70
2022-07-27T01:22:46.375Z,23.60
2022-07-27T01:23:48.050Z,23.70
2022-07-27T01:24:53.035Z,23.60
2022-07-27T01:25:55.518Z,23.70
2022-07-27T01:26:57.425Z,23.60
2022-07-27T01:27:59.128Z,23.60
2022-07-27T01:29:01.672Z,23.60
2022-07-27T01:30:25.275Z,23.60
2022-07-27T01:31:28.538Z,23.50
2022-07-27T01:32:30.319Z,23.50
2022-07-27T01:33:32.006Z,23.50
2022-07-27T01:34:34.305Z,23.40
2022-07-27T01:35:37.756Z,23.40
2022-07-27T01:36:39.535Z,23.40
2022-07-27T01:37:41.196Z,23.40
2022-07-27T01:38:49.958Z,23.40
2022-07-27T01:39:51.633Z,23.40
2022-07-27T01:40:54.627Z,23.40
2022-07-27T01:41:56.377Z,23.40
2022-07-27T01:42:58.154Z,23.60
2022-07-27T01:43:59.850Z,23.50
2022-07-27T01:45:01.514Z,23.40
2022-07-27T01:46:03.983Z,23.40
2022-07-27T01:47:14.050Z,23.30
2022-07-27T01:48:16.503Z,23.40
2022-07-27T01:49:18.474Z,23.30
2022-07-27T01:50:20.374Z,23.30
2022-07-27T01:51:22.378Z,23.20
2022-07-27T01:52:24.085Z,23.30
2022-07-27T01:53:25.806Z,23.10
2022-07-27T01:54:27.471Z,23.10
2022-07-27T01:55:30.236Z,23.10
2022-07-27T01:56:33.159Z,23.10
2022-07-27T01:57:34.830Z,23.10
2022-07-27T01:58:38.330Z,23.10
2022-07-27T01:59:39.996Z,23.10
2022-07-27T02:00:42.092Z,23.10
2022-07-27T02:01:44.510Z,23.10
2022-07-27T02:02:46.325Z,23.10
2022-07-27T02:03:48.019Z,23.10
2022-07-27T02:04:49.784Z,23.10
2022-07-27T02:05:51.521Z,23.10
2022-07-27T02:06:53.782Z,23.10
2022-07-27T02:07:55.662Z,23.10
2022-07-27T02:08:57.402Z,23.10
2022-07-27T02:09:59.070Z,23.10
2022-07-27T02:11:20.009Z,23.10
2022-07-27T02:12:37.029Z,23.00
2022-07-27T02:13:38.771Z,23.00
2022-07-27T02:14:40.475Z,23.00
2022-07-27T02:15:44.449Z,22.90
2022-07-27T02:16:46.427Z,22.90
2022-07-27T02:17:49.223Z,22.90
2022-07-27T02:18:52.951Z,22.90
2022-07-27T02:19:54.618Z,22.90
2022-07-27T02:20:56.443Z,22.90
2022-07-27T02:21:58.105Z,22.90
2022-07-27T02:22:59.755Z,22.90
2022-07-27T02:24:01.447Z,22.80
2022-07-27T02:25:04.048Z,22.80
2022-07-27T02:26:08.292Z,22.80
2022-07-27T02:27:10.202Z,22.80
2022-07-27T02:28:12.097Z,22.80
2022-07-27T02:29:14.209Z,22.70
2022-07-27T02:30:17.725Z,22.80
2022-07-27T02:31:19.723Z,22.70
2022-07-27T02:32:22.288Z,22.70
2022-07-27T02:33:24.125Z,22.80
2022-07-27T02:34:25.874Z,22.80
2022-07-27T02:35:28.035Z,22.70
2022-07-27T02:36:29.748Z,22.70
2022-07-27T02:37:31.478Z,22.70
2022-07-27T02:38:33.181Z,22.70
2022-07-27T02:39:34.907Z,22.70
2022-07-27T02:40:36.605Z,22.70
2022-07-27T02:41:38.301Z,22.70
2022-07-27T02:42:40.065Z,22.70
2022-07-27T02:43:41.709Z,22.70
2022-07-27T02:44:44.203Z,22.80
2022-07-27T02:45:46.517Z,22.70
2022-07-27T02:46:48.899Z,22.70
2022-07-27T02:47:51.375Z,22.80
2022-07-27T02:48:53.613Z,22.80
2022-07-27T02:49:55.309Z,22.80
2022-07-27T02:51:01.111Z,22.80
2022-07-27T02:52:03.656Z,22.80
2022-07-27T02:53:05.401Z,22.80
2022-07-27T02:54:08.348Z,22.90
2022-07-27T02:55:10.558Z,22.90
2022-07-27T02:56:12.268Z,22.90
2022-07-27T02:57:13.987Z,22.80
2022-07-27T02:58:15.703Z,22.90
2022-07-27T02:59:18.383Z,22.80
2022-07-27T03:00:20.098Z,22.80
2022-07-27T03:01:22.348Z,22.80
2022-07-27T03:02:24.121Z,22.80
2022-07-27T03:03:34.527Z,22.80
2022-07-27T03:04:38.930Z,22.70
2022-07-27T03:05:40.689Z,22.70
2022-07-27T03:06:43.034Z,22.70
2022-07-27T03:07:44.867Z,22.60
2022-07-27T03:08:46.573Z,22.60
2022-07-27T03:09:52.480Z,22.60
2022-07-27T03:10:54.440Z,22.70
2022-07-27T03:11:56.140Z,22.50
2022-07-27T03:12:58.812Z,22.50
2022-07-27T03:14:00.479Z,22.40
2022-07-27T03:15:02.244Z,22.40
2022-07-27T03:16:04.641Z,22.40
2022-07-27T03:17:06.565Z,22.40
2022-07-27T03:18:08.283Z,22.30
2022-07-27T03:19:10.261Z,22.40
2022-07-27T03:20:12.392Z,22.40
2022-07-27T03:21:14.218Z,22.40
2022-07-27T03:22:17.092Z,22.50
2022-07-27T03:23:19.457Z,22.50
2022-07-27T03:24:21.158Z,22.40
2022-07-27T03:25:23.274Z,22.50
2022-07-27T03:26:25.043Z,22.50
2022-07-27T03:27:29.826Z,22.50
2022-07-27T03:28:31.992Z,22.50
2022-07-27T03:29:33.656Z,22.50
2022-07-27T03:30:35.878Z,22.50
2022-07-27T03:31:37.606Z,22.50
2022-07-27T03:32:39.285Z,22.50
2022-07-27T03:33:41.329Z,22.40
2022-07-27T03:34:43.268Z,22.40
2022-07-27T03:35:45.033Z,22.30
2022-07-27T03:36:46.731Z,22.30
2022-07-27T03:37:48.440Z,22.30
2022-07-27T03:38:50.113Z,22.30
2022-07-27T03:39:51.777Z,22.20
2022-07-27T03:40:53.662Z,22.20
2022-07-27T03:41:55.474Z,22.20
2022-07-27T03:42:57.229Z,22.20
2022-07-27T03:43:59.114Z,22.20
2022-07-27T03:45:00.834Z,22.10
2022-07-27T03:46:02.666Z,22.10
2022-07-27T03:47:04.638Z,22.10
2022-07-27T03:48:08.904Z,22.10
2022-07-27T03:49:14.613Z,22.10
2022-07-27T03:50:17.358Z,22.10
2022-07-27T03:51:19.191Z,22.10
2022-07-27T03:52:21.154Z,22.10
2022-07-27T03:53:22.987Z,22.10
2022-07-27T03:54:24.661Z,22.10
2022-07-27T03:55:26.397Z,22.10
2022-07-27T03:56:28.059Z,22.10
2022-07-27T03:57:29.734Z,22.10
2022-07-27T03:58:31.505Z,22.10
2022-07-27T03:59:33.160Z,22.10
2022-07-27T04:00:34.973Z,22.10
2022-07-27T04:01:36.753Z,22.00
2022-07-27T04:02:39.020Z,22.10
2022-07-27T04:03:44.219Z,22.00
2022-07-27T04:04:46.048Z,22.00
2022-07-27T04:05:47.752Z,21.90
2022-07-27T04:06:49.485Z,21.80
2022-07-27T04:07:54.740Z,21.80
2022-07-27T04:09:06.994Z,21.80
2022-07-27T04:10:10.560Z,21.80
2022-07-27T04:11:12.242Z,21.80
2022-07-27T04:12:19.881Z,21.80
2022-07-27T04:13:21.807Z,21.80
2022-07-27T04:14:23.537Z,21.70
2022-07-27T04:15:25.298Z,21.70
2022-07-27T04:16:26.997Z,21.70
2022-07-27T04:17:54.433Z,21.70
2022-07-27T04:18:50.416Z,21.70
2022-07-27T04:19:52.118Z,21.70
2022-07-27T04:20:53.760Z,21.60
2022-07-27T04:21:55.418Z,21.60
2022-07-27T04:22:57.083Z,21.60
2022-07-27T04:23:58.759Z,21.60
2022-07-27T04:25:00.520Z,21.60
2022-07-27T04:26:02.186Z,21.60
2022-07-27T04:27:04.130Z,21.60
2022-07-27T04:28:05.995Z,21.60
2022-07-27T04:29:07.645Z,21.60
2022-07-27T04:30:09.964Z,21.60
2022-07-27T04:31:11.823Z,21.60
2022-07-27T04:32:13.558Z,21.60
2022-07-27T04:33:15.528Z,21.60
2022-07-27T04:34:17.357Z,21.60
2022-07-27T04:35:22.694Z,21.60
2022-07-27T04:36:27.868Z,21.60
2022-07-27T04:37:30.217Z,21.60
2022-07-27T04:38:31.889Z,21.70
2022-07-27T04:39:33.555Z,21.70
2022-07-27T04:40:36.025Z,21.70
2022-07-27T04:41:37.735Z,21.70
2022-07-27T04:42:39.581Z,21.70
2022-07-27T04:43:51.454Z,21.80
2022-07-27T04:44:54.428Z,21.70
2022-07-27T04:45:56.229Z,21.70
2022-07-27T04:46:57.996Z,21.80
2022-07-27T04:47:59.845Z,21.80
2022-07-27T04:49:01.595Z,21.90
2022-07-27T04:50:03.839Z,21.90
2022-07-27T04:51:05.500Z,22.00
2022-07-27T04:52:07.492Z,22.00
2022-07-27T04:53:10.658Z,22.00
2022-07-27T04:54:12.857Z,22.10
2022-07-27T04:55:14.833Z,22.00
2022-07-27T04:56:16.505Z,22.00
2022-07-27T04:57:21.286Z,22.10
2022-07-27T04:58:24.285Z,22.10
2022-07-27T04:59:25.994Z,22.10
2022-07-27T05:00:28.025Z,22.20
2022-07-27T05:01:34.954Z,22.20
2022-07-27T05:02:40.901Z,22.20
2022-07-27T05:03:43.101Z,22.20
2022-07-27T05:04:44.896Z,22.30
2022-07-27T05:05:49.661Z,22.30
2022-07-27T05:06:52.176Z,22.30
2022-07-27T05:07:54.939Z,22.30
2022-07-27T05:08:56.744Z,22.40
2022-07-27T05:09:58.416Z,22.40
2022-07-27T05:11:00.224Z,22.40
2022-07-27T05:12:02.016Z,22.40
2022-07-27T05:13:03.843Z,22.40
2022-07-27T05:14:09.284Z,22.40
2022-07-27T05:15:11.174Z,22.40
2022-07-27T05:16:13.034Z,22.50
2022-07-27T05:17:15.346Z,22.50
2022-07-27T05:18:17.683Z,22.50
2022-07-27T05:19:19.810Z,22.50
2022-07-27T05:20:21.552Z,22.50
2022-07-27T05:21:23.256Z,22.50
2022-07-27T05:22:24.991Z,22.50
2022-07-27T05:23:26.634Z,22.50
2022-07-27T05:24:28.755Z,22.50
2022-07-27T05:25:30.428Z,22.50
2022-07-27T05:26:32.638Z,22.50
2022-07-27T05:27:34.794Z,22.50
2022-07-27T05:28:36.544Z,22.50
2022-07-27T05:29:39.551Z,22.50
2022-07-27T05:30:41.335Z,22.40
2022-07-27T05:31:43.085Z,22.40
2022-07-27T05:32:45.225Z,22.40
2022-07-27T05:33:49.817Z,22.40
2022-07-27T05:34:53.038Z,22.40
2022-07-27T05:35:56.310Z,22.40
2022-07-27T05:36:57.991Z,22.40
2022-07-27T05:38:00.809Z,22.50
2022-07-27T05:39:02.761Z,22.50
2022-07-27T05:40:07.096Z,22.50
2022-07-27T05:41:09.472Z,22.60
2022-07-27T05:42:11.288Z,22.60
2022-07-27T05:43:13.561Z,22.60
2022-07-27T05:44:16.881Z,22.70
2022-07-27T05:45:19.013Z,22.70
2022-07-27T05:46:21.464Z,22.70
2022-07-27T05:47:23.203Z,22.80
2022-07-27T05:48:24.977Z,22.70
2022-07-27T05:49:26.884Z,22.80
2022-07-27T05:50:28.666Z,22.80
2022-07-27T05:51:31.706Z,22.80
2022-07-27T05:52:34.670Z,23.00
2022-07-27T05:53:36.375Z,22.80
2022-07-27T05:54:38.365Z,22.80
2022-07-27T05:55:57.748Z,22.90
2022-07-27T05:57:00.720Z,22.80
2022-07-27T05:58:02.575Z,22.90
2022-07-27T05:59:07.299Z,22.90
2022-07-27T06:00:11.823Z,22.90
2022-07-27T06:01:13.638Z,22.90
2022-07-27T06:02:15.383Z,22.90
2022-07-27T06:03:17.116Z,22.90
2022-07-27T06:04:21.624Z,22.90
2022-07-27T06:05:23.454Z,22.90
2022-07-27T06:06:43.748Z,22.90
2022-07-27T06:08:01.035Z,22.90
2022-07-27T06:09:03.501Z,23.00
2022-07-27T06:10:06.178Z,23.00
2022-07-27T06:11:11.979Z,23.00
2022-07-27T06:12:13.785Z,23.00
2022-07-27T06:13:15.499Z,23.00
2022-07-27T06:14:17.253Z,23.00
2022-07-27T06:15:19.751Z,23.00
2022-07-27T06:16:22.157Z,23.00
2022-07-27T06:17:23.929Z,23.00
2022-07-27T06:18:25.621Z,23.00
2022-07-27T06:19:36.067Z,23.00
2022-07-27T06:20:38.286Z,23.00
2022-07-27T06:21:40.096Z,23.00
2022-07-27T06:22:47.313Z,23.00
2022-07-27T06:23:48.985Z,23.10
2022-07-27T06:24:50.933Z,23.10
2022-07-27T06:25:52.602Z,23.10
2022-07-27T06:26:55.863Z,23.10
2022-07-27T06:28:00.169Z,23.10
2022-07-27T06:29:01.953Z,23.10
2022-07-27T06:30:04.990Z,23.10
2022-07-27T06:31:06.877Z,23.20
2022-07-27T06:32:08.733Z,23.20
2022-07-27T06:33:12.545Z,23.20
2022-07-27T06:34:14.895Z,23.20
2022-07-27T06:35:16.625Z,23.20
2022-07-27T06:36:20.785Z,23.20
2022-07-27T06:37:22.556Z,23.20
2022-07-27T06:38:24.781Z,23.30
2022-07-27T06:39:27.434Z,23.30
2022-07-27T06:40:30.081Z,23.30
2022-07-27T06:41:34.478Z,23.40
2022-07-27T06:42:36.186Z,23.30
2022-07-27T06:43:37.886Z,23.30
2022-07-27T06:44:40.013Z,23.20
2022-07-27T06:45:41.752Z,23.40
2022-07-27T06:46:43.620Z,23.40
2022-07-27T06:47:49.920Z,23.20
2022-07-27T06:48:53.222Z,23.30
2022-07-27T06:49:56.038Z,23.30
2022-07-27T06:50:57.878Z,23.30
2022-07-27T06:51:59.542Z,23.30
2022-07-27T06:53:01.244Z,23.30
2022-07-27T06:54:03.021Z,23.40
2022-07-27T06:55:05.404Z,23.30
2022-07-27T06:56:10.520Z,23.30
2022-07-27T06:57:12.195Z,23.30
2022-07-27T06:58:14.003Z,23.30
2022-07-27T06:59:16.098Z,23.30
2022-07-27T07:00:18.085Z,23.30
2022-07-27T07:01:19.834Z,23.40
2022-07-27T07:02:21.577Z,23.40
2022-07-27T07:03:24.376Z,23.40
2022-07-27T07:04:26.076Z,23.40
2022-07-27T07:05:27.945Z,23.40
2022-07-27T07:06:29.690Z,23.50
2022-07-27T07:07:31.712Z,23.50
2022-07-27T07:08:33.420Z,23.50
2022-07-27T07:09:35.543Z,23.50
2022-07-27T07:10:38.713Z,23.60
2022-07-27T07:11:40.498Z,23.50
2022-07-27T07:12:42.253Z,23.60
2022-07-27T07:13:45.178Z,23.60
2022-07-27T07:14:46.930Z,23.60
2022-07-27T07:15:48.645Z,23.60
2022-07-27T07:16:50.477Z,23.60
2022-07-27T07:17:53.729Z,23.70
2022-07-27T07:18:55.453Z,23.70
2022-07-27T07:19:57.102Z,23.70
2022-07-27T07:20:59.323Z,23.70
2022-07-27T07:22:01.020Z,23.80
2022-07-27T07:23:03.091Z,23.80
2022-07-27T07:24:05.124Z,23.80
2022-07-27T07:25:06.969Z,23.90
2022-07-27T07:26:08.934Z,23.90
2022-07-27T07:27:12.843Z,24.00
2022-07-27T07:28:14.543Z,24.00
2022-07-27T07:29:16.599Z,24.00
2022-07-27T07:30:18.871Z,24.00
2022-07-27T07:31:21.096Z,24.00
2022-07-27T07:32:27.758Z,24.00
2022-07-27T07:33:33.220Z,24.00
2022-07-27T07:34:34.873Z,24.00
2022-07-27T07:35:36.663Z,23.90
2022-07-27T07:36:38.559Z,23.90
2022-07-27T07:37:40.447Z,23.90
2022-07-27T07:38:43.373Z,23.90
2022-07-27T07:39:45.773Z,23.90
2022-07-27T07:40:47.428Z,23.90
2022-07-27T07:41:49.107Z,24.00
2022-07-27T07:42:56.998Z,24.00
2022-07-27T07:43:58.732Z,24.00
2022-07-27T07:45:00.400Z,24.10
2022-07-27T07:46:02.556Z,24.10
2022-07-27T07:47:06.754Z,24.10
2022-07-27T07:48:08.874Z,24.10
2022-07-27T07:49:11.911Z,24.10
2022-07-27T07:50:14.236Z,24.10
2022-07-27T07:51:16.255Z,24.10
2022-07-27T07:52:18.062Z,24.10
2022-07-27T07:53:22.375Z,24.20
2022-07-27T07:54:24.085Z,24.20
2022-07-27T07:55:27.541Z,24.20
2022-07-27T07:56:30.124Z,24.20
2022-07-27T07:57:31.833Z,24.20
2022-07-27T07:58:33.653Z,24.20
2022-07-27T07:59:35.289Z,24.20
2022-07-27T08:00:36.994Z,24.20
2022-07-27T08:01:39.843Z,24.20
2022-07-27T08:02:53.158Z,24.20
2022-07-27T08:03:55.303Z,24.30
2022-07-27T08:04:57.327Z,24.30
2022-07-27T08:05:59.058Z,24.30
2022-07-27T08:07:00.730Z,24.30
2022-07-27T08:08:02.419Z,24.30
2022-07-27T08:09:04.214Z,24.30
2022-07-27T08:10:08.116Z,24.30
2022-07-27T08:11:10.468Z,24.30
2022-07-27T08:12:13.197Z,24.30
2022-07-27T08:13:21.170Z,24.30
2022-07-27T08:14:26.559Z,24.30
2022-07-27T08:15:29.972Z,24.30
2022-07-27T08:16:37.587Z,24.30
2022-07-27T08:17:40.030Z,24.40
2022-07-27T08:18:41.855Z,24.40
2022-07-27T08:19:44.501Z,24.40
2022-07-27T08:20:46.294Z,24.50
2022-07-27T08:21:48.320Z,24.50
2022-07-27T08:22:50.393Z,24.50
2022-07-27T08:23:52.152Z,24.50
2022-07-27T08:24:53.870Z,24.50
2022-07-27T08:25:55.625Z,24.50
2022-07-27T08:26:57.854Z,24.50
2022-07-27T08:28:00.272Z,24.50
2022-07-27T08:29:11.199Z,24.50
2022-07-27T08:30:15.459Z,24.40
2022-07-27T08:31:22.636Z,24.40
2022-07-27T08:32:29.202Z,24.40
2022-07-27T08:33:32.087Z,24.40
2022-07-27T08:34:34.012Z,24.40
2022-07-27T08:35:36.000Z,24.50
2022-07-27T08:36:37.674Z,24.50
2022-07-27T08:37:40.386Z,24.50
2022-07-27T08:38:43.314Z,24.50
2022-07-27T08:41:08.128Z,24.60
2022-07-27T08:42:10.580Z,24.70
2022-07-27T08:43:20.202Z,24.70
2022-07-27T08:44:27.642Z,24.80
2022-07-27T08:45:30.332Z,24.80
2022-07-27T08:46:33.004Z,24.90
2022-07-27T08:47:35.746Z,24.90
2022-07-27T08:48:40.050Z,24.90
2022-07-27T08:49:44.147Z,25.00
2022-07-27T08:50:48.962Z,25.00
2022-07-27T08:51:51.035Z,25.10
2022-07-27T08:53:05.003Z,25.10
2022-07-27T08:54:07.841Z,25.20
2022-07-27T08:55:09.753Z,25.20
2022-07-27T08:56:12.783Z,25.20
2022-07-27T08:57:14.902Z,25.30
2022-07-27T08:58:17.247Z,25.20
2022-07-27T08:59:19.371Z,25.20
2022-07-27T09:00:21.185Z,25.30
2022-07-27T09:01:23.140Z,25.30
2022-07-27T09:02:26.381Z,25.30
2022-07-27T09:03:28.646Z,25.30
2022-07-27T09:04:31.334Z,25.40
2022-07-27T09:05:42.286Z,25.40
2022-07-27T09:06:54.160Z,25.40
2022-07-27T09:08:13.098Z,25.40
2022-07-27T09:09:20.270Z,25.40
2022-07-27T09:10:33.691Z,25.50
2022-07-27T09:11:37.163Z,25.50
2022-07-27T09:12:39.837Z,25.50
2022-07-27T09:13:42.532Z,25.50
2022-07-27T09:14:44.211Z,25.50
2022-07-27T09:19:03.500Z,25.60
2022-07-27T09:20:17.406Z,25.70
2022-07-27T09:21:22.400Z,25.70
2022-07-27T09:22:43.374Z,25.70
2022-07-27T09:23:49.717Z,25.80
2022-07-27T09:25:04.255Z,25.80
2022-07-27T09:26:30.497Z,25.70
2022-07-27T09:27:32.838Z,25.70
2022-07-27T09:28:34.498Z,25.80
2022-07-27T09:29:37.106Z,25.80
2022-07-27T09:30:43.571Z,25.70
2022-07-27T09:31:51.738Z,25.80
2022-07-27T09:32:59.034Z,25.80
2022-07-27T09:34:03.438Z,25.80
2022-07-27T09:35:21.001Z,25.80
2022-07-27T09:36:24.845Z,25.80
2022-07-27T09:37:27.901Z,25.80
2022-07-27T09:38:29.537Z,25.80
2022-07-27T09:39:31.321Z,25.80
2022-07-27T09:40:36.299Z,25.70
2022-07-27T09:41:41.190Z,25.80
2022-07-27T09:44:30.863Z,25.80
2022-07-27T09:45:36.488Z,25.80
2022-07-27T09:46:45.335Z,25.80
2022-07-27T09:47:48.706Z,25.80
2022-07-27T09:48:50.388Z,25.80
2022-07-27T09:49:54.541Z,25.80
2022-07-27T09:51:02.669Z,25.80
2022-07-27T09:52:07.187Z,25.80
2022-07-27T09:53:41.317Z,25.80
2022-07-27T09:54:47.054Z,25.80
2022-07-27T09:56:18.139Z,25.80
2022-07-27T09:57:19.944Z,25.80
2022-07-27T09:58:21.909Z,25.70
2022-07-27T09:59:23.594Z,25.70
2022-07-27T10:00:31.036Z,25.70
2022-07-27T10:01:42.220Z,25.70
2022-07-27T10:02:50.339Z,25.70
2022-07-27T10:03:58.441Z,25.80
2022-07-27T10:05:00.766Z,25.90
2022-07-27T10:06:03.610Z,25.80
2022-07-27T10:07:10.648Z,25.90
2022-07-27T10:08:14.980Z,25.90
2022-07-27T10:09:19.229Z,25.90
2022-07-27T10:10:22.445Z,26.00
2022-07-27T10:11:25.046Z,26.00
2022-07-27T10:12:29.839Z,26.00
2022-07-27T10:13:31.685Z,26.10
2022-07-27T10:14:38.374Z,26.10
2022-07-27T10:15:41.836Z,26.20
2022-07-27T10:16:48.424Z,26.30
2022-07-27T10:18:06.463Z,26.30
2022-07-27T10:19:21.636Z,26.30
2022-07-27T10:20:23.772Z,26.30
2022-07-27T10:21:27.081Z,26.40
2022-07-27T10:22:58.517Z,26.40
2022-07-27T10:24:23.016Z,26.40
2022-07-27T10:25:26.564Z,26.50
2022-07-27T10:26:43.205Z,26.50
2022-07-27T10:28:07.079Z,26.50
2022-07-27T10:29:20.285Z,26.50
2022-07-27T10:30:27.833Z,26.60
2022-07-27T10:31:37.330Z,26.50
2022-07-27T10:32:39.775Z,26.60
2022-07-27T10:33:43.651Z,26.60
2022-07-27T10:34:46.558Z,26.60
2022-07-27T10:35:51.145Z,26.70
2022-07-27T10:36:53.827Z,26.70
2022-07-27T10:38:44.356Z,26.70
2022-07-27T10:40:13.241Z,26.60
2022-07-27T10:41:25.407Z,26.60
2022-07-27T10:42:31.116Z,26.60
2022-07-27T10:43:33.178Z,26.60
2022-07-27T10:44:35.049Z,26.60
2022-07-27T10:45:50.291Z,26.60
2022-07-27T10:47:05.381Z,26.70
2022-07-27T10:48:07.370Z,26.70
2022-07-27T10:49:26.447Z,26.70
2022-07-27T10:50:29.996Z,26.80
2022-07-27T10:51:35.704Z,26.80
2022-07-27T10:52:43.545Z,26.90
2022-07-27T10:55:08.823Z,27.00
2022-07-27T10:56:10.811Z,27.00
2022-07-27T10:57:26.032Z,27.20
2022-07-27T10:58:28.575Z,27.10
2022-07-27T11:01:05.032Z,27.30
2022-07-27T11:02:10.230Z,27.30
2022-07-27T11:03:25.746Z,27.40
2022-07-27T11:04:27.651Z,27.50
2022-07-27T11:07:23.598Z,27.50
2022-07-27T11:08:40.909Z,27.50
2022-07-27T11:10:04.171Z,27.70
2022-07-27T11:11:09.103Z,27.80
2022-07-27T11:12:12.389Z,27.80
2022-07-27T11:13:17.752Z,27.80
2022-07-27T11:14:19.567Z,27.80
2022-07-27T11:15:32.928Z,27.80
2022-07-27T11:16:55.603Z,27.80
2022-07-27T11:18:03.299Z,27.80
2022-07-27T11:19:07.706Z,27.70
2022-07-27T11:20:10.241Z,27.70
2022-07-27T11:21:26.195Z,27.70
2022-07-27T11:23:14.117Z,27.70
2022-07-27T11:24:14.944Z,27.60
2022-07-27T11:25:16.900Z,27.60
2022-07-27T11:26:18.993Z,27.60
2022-07-27T11:27:25.226Z,27.60
2022-07-27T11:28:35.117Z,27.60
2022-07-27T11:29:40.010Z,27.60
2022-07-27T11:30:45.799Z,27.60
2022-07-27T11:31:56.383Z,27.50
2022-07-27T11:33:07.664Z,27.50
2022-07-27T11:34:09.995Z,27.50
2022-07-27T11:35:20.261Z,27.60
2022-07-27T11:36:23.252Z,27.60
2022-07-27T11:37:25.122Z,27.70
2022-07-27T11:38:27.610Z,27.70
2022-07-27T11:40:59.923Z,27.90
2022-07-27T11:42:12.313Z,27.80
2022-07-27T11:43:39.210Z,27.80
2022-07-27T11:44:46.164Z,27.80
2022-07-27T11:45:48.335Z,27.80
2022-07-27T11:46:52.484Z,27.90
2022-07-27T11:47:59.926Z,27.90
2022-07-27T11:49:09.054Z,28.00
2022-07-27T11:50:13.085Z,28.00
2022-07-27T11:51:18.495Z,28.00
2022-07-27T11:52:20.221Z,28.10
2022-07-27T11:53:21.954Z,28.10
2022-07-27T11:54:30.594Z,28.00
2022-07-27T11:55:32.302Z,28.00
2022-07-27T11:56:36.256Z,28.00
2022-07-27T11:57:37.996Z,28.00
2022-07-27T11:59:01.418Z,28.00
2022-07-27T12:00:04.342Z,27.90
2022-07-27T12:01:06.341Z,27.80
2022-07-27T12:02:14.807Z,27.70
2022-07-27T12:03:32.205Z,27.70
2022-07-27T12:04:51.182Z,27.60
2022-07-27T12:05:58.269Z,27.60
2022-07-27T12:07:01.374Z,27.50
2022-07-27T12:08:03.155Z,27.50
2022-07-27T12:09:06.801Z,27.50
2022-07-27T12:10:08.969Z,27.50
2022-07-27T12:11:10.745Z,27.50
2022-07-27T12:12:16.696Z,27.50
2022-07-27T12:13:18.928Z,27.50
2022-07-27T12:14:28.579Z,27.50
2022-07-27T12:15:46.766Z,27.60
2022-07-27T12:16:48.834Z,27.60
2022-07-27T12:17:57.597Z,27.60
2022-07-27T12:18:59.379Z,27.60
2022-07-27T12:20:13.567Z,27.70
2022-07-27T12:21:18.890Z,27.70
2022-07-27T12:22:53.923Z,27.80
2022-07-27T12:23:55.886Z,27.80
2022-07-27T12:24:59.519Z,27.80
2022-07-27T12:26:18.150Z,27.80
2022-07-27T12:27:21.844Z,27.80
2022-07-27T12:28:28.026Z,27.80
2022-07-27T12:29:29.760Z,27.90
2022-07-27T12:30:36.668Z,27.90
2022-07-27T12:31:49.282Z,28.00
2022-07-27T12:32:55.325Z,28.10
2022-07-27T12:34:06.046Z,28.20
2022-07-27T12:35:32.829Z,28.30
2022-07-27T12:36:41.509Z,28.40
2022-07-27T12:37:43.865Z,28.40
2022-07-27T12:38:59.672Z,28.40
2022-07-27T12:40:01.593Z,28.40
2022-07-27T12:41:03.299Z,28.40
2022-07-27T12:42:06.873Z,28.40
2022-07-27T12:43:09.766Z,28.40
2022-07-27T12:44:18.312Z,28.40
2022-07-27T12:45:20.811Z,28.40
2022-07-27T12:46:22.607Z,28.30
2022-07-27T12:47:42.491Z,28.40
2022-07-27T12:48:44.388Z,28.40
2022-07-27T12:50:06.755Z,28.40
2022-07-27T12:51:09.791Z,28.40
2022-07-27T12:52:11.880Z,28.30
2022-07-27T12:53:15.998Z,28.30
2022-07-27T12:54:18.439Z,28.20
2022-07-27T12:55:22.545Z,28.20
2022-07-27T12:56:27.064Z,28.20
2022-07-27T12:57:53.988Z,28.10
2022-07-27T12:58:59.342Z,28.10
2022-07-27T13:00:01.057Z,28.20
2022-07-27T13:01:06.370Z,28.20
2022-07-27T13:02:08.233Z,28.30
2022-07-27T13:03:10.032Z,28.40
2022-07-27T13:04:12.908Z,28.60
2022-07-27T13:05:15.687Z,28.80
2022-07-27T13:06:24.713Z,29.00
2022-07-27T13:07:26.460Z,29.20
2022-07-27T13:08:35.481Z,29.30
2022-07-27T13:10:01.720Z,29.50
2022-07-27T13:11:00.974Z,29.60
2022-07-27T13:12:02.877Z,29.80
2022-07-27T13:13:06.772Z,29.90
2022-07-27T13:14:08.645Z,29.90
2022-07-27T13:15:10.972Z,30.00
2022-07-27T13:16:12.963Z,30.10
2022-07-27T13:17:14.622Z,30.20
2022-07-27T13:18:21.243Z,30.30
2022-07-27T13:19:25.102Z,30.30
2022-07-27T13:20:26.957Z,30.40
2022-07-27T13:21:29.137Z,30.50
2022-07-27T13:22:31.653Z,30.50
2022-07-27T13:23:33.371Z,30.60
2022-07-27T13:24:35.086Z,30.60
2022-07-27T13:25:42.770Z,30.70
2022-07-27T13:26:44.958Z,30.80
2022-07-27T13:27:48.538Z,30.90
2022-07-27T13:28:50.340Z,30.90
2022-07-27T13:29:53.136Z,31.00
2022-07-27T13:30:54.860Z,31.00
2022-07-27T13:31:57.472Z,31.10
2022-07-27T13:33:00.838Z,31.10
2022-07-27T13:34:05.198Z,31.20
2022-07-27T13:35:09.256Z,31.20
2022-07-27T13:36:10.964Z,31.10
2022-07-27T13:37:12.616Z,31.00
2022-07-27T13:38:16.632Z,31.00
2022-07-27T13:39:18.576Z,30.90
2022-07-27T13:40:20.292Z,30.80
2022-07-27T13:41:22.302Z,30.70
2022-07-27T13:42:25.981Z,30.60
2022-07-27T13:43:27.664Z,30.50
2022-07-27T13:44:59.448Z,30.40
2022-07-27T13:45:51.609Z,30.30
2022-07-27T13:46:53.284Z,30.20
2022-07-27T13:47:55.035Z,30.10
2022-07-27T13:48:57.054Z,30.00
2022-07-27T13:49:59.958Z,29.90
2022-07-27T13:51:01.782Z,29.80
2022-07-27T13:52:03.963Z,29.90
2022-07-27T13:53:05.787Z,29.80
2022-07-27T13:54:07.664Z,29.80
2022-07-27T13:55:09.612Z,29.80
2022-07-27T13:56:11.359Z,29.80
2022-07-27T13:57:14.314Z,29.90
2022-07-27T13:58:15.923Z,30.00
2022-07-27T13:59:17.594Z,30.00
2022-07-27T14:00:19.500Z,30.00
2022-07-27T14:01:21.218Z,30.10